sensor_id;sensor_type;location;lat;lon;timestamp;temperature;humidity
7516;DHT22;3799;47.184;8.538;2022-10-22T00:00:27;14.90;99.90
7516;DHT22;3799;47.184;8.538;2022-10-22T00:02:52;15.10;99.90
7516;DHT22;3799;47.184;8.538;2022-10-22T00:05:18;15.00;99.90
7516;DHT22;3799;47.184;8.538;2022-10-22T00:07:44;14.80;99.90
7516;DHT22;3799;47.184;8.538;2022-10-22T00:10:09;14.90;99.90
7516;DHT22;3799;47.184;8.538;2022-10-22T00:12:35;15.00;99.90
7516;DHT22;3799;47.184;8.538;2022-10-22T00:15:01;15.10;99.90
7516;DHT22;3799;47.184;8.538;2022-10-22T00:17:27;15.20;99.90
7516;DHT22;3799;47.184;8.538;2022-10-22T00:19:53;15.10;99.90
7516;DHT22;3799;47.184;8.538;2022-10-22T00:22:18;15.10;99.90
7516;DHT22;3799;47.184;8.538;2022-10-22T00:24:44;15.20;99.90
7516;DHT22;3799;47.184;8.538;2022-10-22T00:27:11;15.30;99.90
7516;DHT22;3799;47.184;8.538;2022-10-22T00:29:37;15.20;99.90
7516;DHT22;3799;47.184;8.538;2022-10-22T00:32:03;14.90;99.90
7516;DHT22;3799;47.184;8.538;2022-10-22T00:34:29;15.10;99.90
7516;DHT22;3799;47.184;8.538;2022-10-22T00:36:54;15.00;99.90
7516;DHT22;3799;47.184;8.538;2022-10-22T00:39:21;15.10;99.90
7516;DHT22;3799;47.184;8.538;2022-10-22T00:41:48;15.00;99.90
7516;DHT22;3799;47.184;8.538;2022-10-22T00:46:58;14.80;99.90
7516;DHT22;3799;47.184;8.538;2022-10-22T00:49:24;15.10;99.90
7516;DHT22;3799;47.184;8.538;2022-10-22T00:51:49;14.80;99.90
7516;DHT22;3799;47.184;8.538;2022-10-22T00:54:15;14.70;99.90
7516;DHT22;3799;47.184;8.538;2022-10-22T00:56:41;14.90;99.90
7516;DHT22;3799;47.184;8.538;2022-10-22T00:59:07;14.80;99.90
7516;DHT22;3799;47.184;8.538;2022-10-22T01:01:33;15.00;99.90
7516;DHT22;3799;47.184;8.538;2022-10-22T01:03:58;14.80;99.90
7516;DHT22;3799;47.184;8.538;2022-10-22T01:06:28;14.80;99.90
7516;DHT22;3799;47.184;8.538;2022-10-22T01:14:10;14.80;99.90
7516;DHT22;3799;47.184;8.538;2022-10-22T01:19:21;14.50;99.90
7516;DHT22;3799;47.184;8.538;2022-10-22T01:21:51;14.40;99.90
7516;DHT22;3799;47.184;8.538;2022-10-22T01:29:39;14.40;99.90
7516;DHT22;3799;47.184;8.538;2022-10-22T01:32:07;14.20;99.90
7516;DHT22;3799;47.184;8.538;2022-10-22T01:34:34;14.30;99.90
7516;DHT22;3799;47.184;8.538;2022-10-22T01:37:00;14.40;99.90
7516;DHT22;3799;47.184;8.538;2022-10-22T01:39:27;14.00;99.90
7516;DHT22;3799;47.184;8.538;2022-10-22T01:41:54;14.20;99.90
7516;DHT22;3799;47.184;8.538;2022-10-22T01:46:48;14.30;99.90
7516;DHT22;3799;47.184;8.538;2022-10-22T01:49:24;14.20;99.90
7516;DHT22;3799;47.184;8.538;2022-10-22T01:52:01;14.30;99.90
7516;DHT22;3799;47.184;8.538;2022-10-22T01:54:38;13.90;99.90
7516;DHT22;3799;47.184;8.538;2022-10-22T01:57:10;14.40;99.90
7516;DHT22;3799;47.184;8.538;2022-10-22T02:02:25;14.10;99.90
7516;DHT22;3799;47.184;8.538;2022-10-22T02:04:57;14.40;99.90
7516;DHT22;3799;47.184;8.538;2022-10-22T02:07:25;14.30;99.90
7516;DHT22;3799;47.184;8.538;2022-10-22T02:09:52;14.40;99.90
7516;DHT22;3799;47.184;8.538;2022-10-22T02:12:19;14.30;99.90
7516;DHT22;3799;47.184;8.538;2022-10-22T02:14:46;14.30;99.90
7516;DHT22;3799;47.184;8.538;2022-10-22T02:17:13;14.40;99.90
7516;DHT22;3799;47.184;8.538;2022-10-22T02:19:41;14.10;99.90
7516;DHT22;3799;47.184;8.538;2022-10-22T02:22:10;14.60;99.90
7516;DHT22;3799;47.184;8.538;2022-10-22T02:24:36;14.50;99.90
7516;DHT22;3799;47.184;8.538;2022-10-22T02:27:10;14.20;99.90
7516;DHT22;3799;47.184;8.538;2022-10-22T02:29:38;14.30;99.90
7516;DHT22;3799;47.184;8.538;2022-10-22T02:32:05;14.40;99.90
7516;DHT22;3799;47.184;8.538;2022-10-22T02:34:32;14.20;99.90
7516;DHT22;3799;47.184;8.538;2022-10-22T02:36:58;14.40;99.90
7516;DHT22;3799;47.184;8.538;2022-10-22T02:39:25;14.40;99.90
7516;DHT22;3799;47.184;8.538;2022-10-22T02:41:51;14.10;99.90
7516;DHT22;3799;47.184;8.538;2022-10-22T02:44:19;14.20;99.90
7516;DHT22;3799;47.184;8.538;2022-10-22T02:46:45;14.30;99.90
7516;DHT22;3799;47.184;8.538;2022-10-22T02:49:10;14.50;99.90
7516;DHT22;3799;47.184;8.538;2022-10-22T02:51:36;14.50;99.90
7516;DHT22;3799;47.184;8.538;2022-10-22T02:54:02;14.50;99.90
7516;DHT22;3799;47.184;8.538;2022-10-22T02:56:28;14.60;99.90
7516;DHT22;3799;47.184;8.538;2022-10-22T02:58:53;14.60;99.90
7516;DHT22;3799;47.184;8.538;2022-10-22T03:01:19;14.30;99.90
7516;DHT22;3799;47.184;8.538;2022-10-22T03:03:45;14.50;99.90
7516;DHT22;3799;47.184;8.538;2022-10-22T03:06:10;14.20;99.90
7516;DHT22;3799;47.184;8.538;2022-10-22T03:08:36;14.20;99.90
7516;DHT22;3799;47.184;8.538;2022-10-22T03:11:01;14.40;99.90
7516;DHT22;3799;47.184;8.538;2022-10-22T03:13:27;14.40;99.90
7516;DHT22;3799;47.184;8.538;2022-10-22T03:15:53;14.60;99.90
7516;DHT22;3799;47.184;8.538;2022-10-22T03:18:19;14.20;99.90
7516;DHT22;3799;47.184;8.538;2022-10-22T03:20:44;14.50;99.90
7516;DHT22;3799;47.184;8.538;2022-10-22T03:23:11;14.30;99.90
7516;DHT22;3799;47.184;8.538;2022-10-22T03:25:38;14.30;99.90
7516;DHT22;3799;47.184;8.538;2022-10-22T03:28:06;14.40;99.90
7516;DHT22;3799;47.184;8.538;2022-10-22T03:30:33;14.30;99.90
7516;DHT22;3799;47.184;8.538;2022-10-22T03:32:59;14.50;99.90
7516;DHT22;3799;47.184;8.538;2022-10-22T03:35:25;14.40;99.90
7516;DHT22;3799;47.184;8.538;2022-10-22T03:37:50;14.00;99.90
7516;DHT22;3799;47.184;8.538;2022-10-22T03:40:16;14.00;99.90
7516;DHT22;3799;47.184;8.538;2022-10-22T03:42:42;14.20;99.90
7516;DHT22;3799;47.184;8.538;2022-10-22T03:45:08;14.40;99.90
7516;DHT22;3799;47.184;8.538;2022-10-22T03:47:34;14.10;99.90
7516;DHT22;3799;47.184;8.538;2022-10-22T03:50:01;14.30;99.90
7516;DHT22;3799;47.184;8.538;2022-10-22T03:52:26;14.00;99.90
7516;DHT22;3799;47.184;8.538;2022-10-22T03:54:52;14.10;99.90
7516;DHT22;3799;47.184;8.538;2022-10-22T03:57:18;14.40;99.90
7516;DHT22;3799;47.184;8.538;2022-10-22T03:59:44;14.20;99.90
7516;DHT22;3799;47.184;8.538;2022-10-22T04:02:11;14.10;99.90
7516;DHT22;3799;47.184;8.538;2022-10-22T04:04:37;14.30;99.90
7516;DHT22;3799;47.184;8.538;2022-10-22T04:07:03;14.20;99.90
7516;DHT22;3799;47.184;8.538;2022-10-22T04:09:30;14.20;99.90
7516;DHT22;3799;47.184;8.538;2022-10-22T04:11:57;14.00;99.90
7516;DHT22;3799;47.184;8.538;2022-10-22T04:14:22;14.10;99.90
7516;DHT22;3799;47.184;8.538;2022-10-22T04:16:48;14.20;99.90
7516;DHT22;3799;47.184;8.538;2022-10-22T04:19:14;14.40;99.90
7516;DHT22;3799;47.184;8.538;2022-10-22T04:21:42;14.30;99.90
7516;DHT22;3799;47.184;8.538;2022-10-22T04:24:08;14.00;99.90
7516;DHT22;3799;47.184;8.538;2022-10-22T04:26:34;14.20;99.90
7516;DHT22;3799;47.184;8.538;2022-10-22T04:29:00;14.10;99.90
7516;DHT22;3799;47.184;8.538;2022-10-22T04:31:26;14.10;99.90
7516;DHT22;3799;47.184;8.538;2022-10-22T04:33:57;14.00;99.90
7516;DHT22;3799;47.184;8.538;2022-10-22T04:36:23;14.10;99.90
7516;DHT22;3799;47.184;8.538;2022-10-22T04:38:53;14.20;99.90
7516;DHT22;3799;47.184;8.538;2022-10-22T04:41:20;14.00;99.90
7516;DHT22;3799;47.184;8.538;2022-10-22T04:43:46;14.20;99.90
7516;DHT22;3799;47.184;8.538;2022-10-22T04:46:12;14.50;99.90
7516;DHT22;3799;47.184;8.538;2022-10-22T04:48:39;14.20;99.90
7516;DHT22;3799;47.184;8.538;2022-10-22T04:51:05;14.10;99.90
7516;DHT22;3799;47.184;8.538;2022-10-22T04:53:32;13.90;99.90
7516;DHT22;3799;47.184;8.538;2022-10-22T04:58:38;14.00;99.90
7516;DHT22;3799;47.184;8.538;2022-10-22T05:01:23;14.20;99.90
7516;DHT22;3799;47.184;8.538;2022-10-22T05:03:49;14.00;99.90
7516;DHT22;3799;47.184;8.538;2022-10-22T05:06:15;14.10;99.90
7516;DHT22;3799;47.184;8.538;2022-10-22T05:08:41;14.10;99.90
7516;DHT22;3799;47.184;8.538;2022-10-22T05:11:11;14.20;99.90
7516;DHT22;3799;47.184;8.538;2022-10-22T05:13:37;14.30;99.90
7516;DHT22;3799;47.184;8.538;2022-10-22T05:16:03;14.30;99.90
7516;DHT22;3799;47.184;8.538;2022-10-22T05:18:29;14.10;99.90
7516;DHT22;3799;47.184;8.538;2022-10-22T05:20:54;13.90;99.90
7516;DHT22;3799;47.184;8.538;2022-10-22T05:23:20;14.20;99.90
7516;DHT22;3799;47.184;8.538;2022-10-22T05:25:46;14.10;99.90
7516;DHT22;3799;47.184;8.538;2022-10-22T05:28:12;14.10;99.90
7516;DHT22;3799;47.184;8.538;2022-10-22T05:30:37;13.90;99.90
7516;DHT22;3799;47.184;8.538;2022-10-22T05:33:03;14.00;99.90
7516;DHT22;3799;47.184;8.538;2022-10-22T05:35:29;14.30;99.90
7516;DHT22;3799;47.184;8.538;2022-10-22T05:37:54;14.10;99.90
7516;DHT22;3799;47.184;8.538;2022-10-22T05:40:20;14.20;99.90
7516;DHT22;3799;47.184;8.538;2022-10-22T05:42:46;14.10;99.90
7516;DHT22;3799;47.184;8.538;2022-10-22T05:45:12;14.10;99.90
7516;DHT22;3799;47.184;8.538;2022-10-22T05:47:37;14.10;99.90
7516;DHT22;3799;47.184;8.538;2022-10-22T05:50:05;14.40;99.90
7516;DHT22;3799;47.184;8.538;2022-10-22T05:52:31;14.50;99.90
7516;DHT22;3799;47.184;8.538;2022-10-22T05:54:57;14.30;99.90
7516;DHT22;3799;47.184;8.538;2022-10-22T05:57:23;14.40;99.90
7516;DHT22;3799;47.184;8.538;2022-10-22T05:59:58;14.20;99.90
7516;DHT22;3799;47.184;8.538;2022-10-22T06:02:23;14.00;99.90
7516;DHT22;3799;47.184;8.538;2022-10-22T06:04:49;14.40;99.90
7516;DHT22;3799;47.184;8.538;2022-10-22T06:07:15;14.10;99.90
7516;DHT22;3799;47.184;8.538;2022-10-22T06:09:41;14.40;99.90
7516;DHT22;3799;47.184;8.538;2022-10-22T06:12:06;14.40;99.90
7516;DHT22;3799;47.184;8.538;2022-10-22T06:14:35;14.20;99.90
7516;DHT22;3799;47.184;8.538;2022-10-22T06:17:01;14.10;99.90
7516;DHT22;3799;47.184;8.538;2022-10-22T06:19:27;14.20;99.90
7516;DHT22;3799;47.184;8.538;2022-10-22T06:21:54;14.30;99.90
7516;DHT22;3799;47.184;8.538;2022-10-22T06:24:19;14.10;99.90
7516;DHT22;3799;47.184;8.538;2022-10-22T06:26:48;14.20;99.90
7516;DHT22;3799;47.184;8.538;2022-10-22T06:29:13;14.20;99.90
7516;DHT22;3799;47.184;8.538;2022-10-22T06:31:42;14.20;99.90
7516;DHT22;3799;47.184;8.538;2022-10-22T06:34:12;14.40;99.90
7516;DHT22;3799;47.184;8.538;2022-10-22T06:36:38;14.00;99.90
7516;DHT22;3799;47.184;8.538;2022-10-22T06:39:05;14.20;99.90
7516;DHT22;3799;47.184;8.538;2022-10-22T06:41:35;14.40;99.90
7516;DHT22;3799;47.184;8.538;2022-10-22T06:44:44;14.00;99.90
7516;DHT22;3799;47.184;8.538;2022-10-22T06:47:12;14.10;99.90
7516;DHT22;3799;47.184;8.538;2022-10-22T06:49:44;14.10;99.90
7516;DHT22;3799;47.184;8.538;2022-10-22T06:52:10;14.20;99.90
7516;DHT22;3799;47.184;8.538;2022-10-22T06:54:37;14.40;99.90
7516;DHT22;3799;47.184;8.538;2022-10-22T06:57:05;14.00;99.90
7516;DHT22;3799;47.184;8.538;2022-10-22T06:59:31;14.20;99.90
7516;DHT22;3799;47.184;8.538;2022-10-22T07:01:59;14.20;99.90
7516;DHT22;3799;47.184;8.538;2022-10-22T07:04:25;14.30;99.90
7516;DHT22;3799;47.184;8.538;2022-10-22T07:06:53;14.60;99.90
7516;DHT22;3799;47.184;8.538;2022-10-22T07:09:19;14.70;99.90
7516;DHT22;3799;47.184;8.538;2022-10-22T07:11:44;14.60;99.90
7516;DHT22;3799;47.184;8.538;2022-10-22T07:14:10;14.80;99.90
7516;DHT22;3799;47.184;8.538;2022-10-22T07:16:37;14.60;99.90
7516;DHT22;3799;47.184;8.538;2022-10-22T07:19:02;14.80;99.90
7516;DHT22;3799;47.184;8.538;2022-10-22T07:21:29;14.60;99.90
7516;DHT22;3799;47.184;8.538;2022-10-22T07:23:55;14.60;99.90
7516;DHT22;3799;47.184;8.538;2022-10-22T07:26:21;14.80;99.90
7516;DHT22;3799;47.184;8.538;2022-10-22T07:28:49;14.80;99.90
7516;DHT22;3799;47.184;8.538;2022-10-22T07:31:15;14.60;99.90
7516;DHT22;3799;47.184;8.538;2022-10-22T07:33:41;14.90;99.90
7516;DHT22;3799;47.184;8.538;2022-10-22T07:36:11;14.80;99.90
7516;DHT22;3799;47.184;8.538;2022-10-22T07:38:45;14.60;99.90
7516;DHT22;3799;47.184;8.538;2022-10-22T07:46:56;14.90;99.90
7516;DHT22;3799;47.184;8.538;2022-10-22T07:49:22;15.20;99.90
7516;DHT22;3799;47.184;8.538;2022-10-22T07:51:48;15.20;99.90
7516;DHT22;3799;47.184;8.538;2022-10-22T07:57:24;15.60;99.90
7516;DHT22;3799;47.184;8.538;2022-10-22T08:03:07;16.10;99.90
7516;DHT22;3799;47.184;8.538;2022-10-22T08:08:55;16.40;99.90
7516;DHT22;3799;47.184;8.538;2022-10-22T08:11:22;16.50;99.90
7516;DHT22;3799;47.184;8.538;2022-10-22T08:13:49;16.40;99.90
7516;DHT22;3799;47.184;8.538;2022-10-22T08:16:16;16.50;99.90
7516;DHT22;3799;47.184;8.538;2022-10-22T08:18:42;16.50;99.90
7516;DHT22;3799;47.184;8.538;2022-10-22T08:21:09;16.60;99.90
7516;DHT22;3799;47.184;8.538;2022-10-22T08:23:35;16.80;99.90
7516;DHT22;3799;47.184;8.538;2022-10-22T08:26:04;16.70;99.90
7516;DHT22;3799;47.184;8.538;2022-10-22T08:28:30;16.80;99.90
7516;DHT22;3799;47.184;8.538;2022-10-22T08:31:07;17.00;99.90
7516;DHT22;3799;47.184;8.538;2022-10-22T08:33:35;17.30;99.90
7516;DHT22;3799;47.184;8.538;2022-10-22T08:36:07;17.20;99.90
7516;DHT22;3799;47.184;8.538;2022-10-22T08:38:34;17.40;99.90
7516;DHT22;3799;47.184;8.538;2022-10-22T08:41:13;17.50;99.90
7516;DHT22;3799;47.184;8.538;2022-10-22T08:48:54;17.60;99.90
7516;DHT22;3799;47.184;8.538;2022-10-22T08:51:22;17.90;99.90
7516;DHT22;3799;47.184;8.538;2022-10-22T08:53:52;17.90;99.90
7516;DHT22;3799;47.184;8.538;2022-10-22T08:56:20;17.60;99.90
7516;DHT22;3799;47.184;8.538;2022-10-22T08:58:48;17.70;99.90
7516;DHT22;3799;47.184;8.538;2022-10-22T09:01:20;17.90;99.90
7516;DHT22;3799;47.184;8.538;2022-10-22T09:03:56;17.50;99.90
7516;DHT22;3799;47.184;8.538;2022-10-22T09:06:26;17.60;99.90
7516;DHT22;3799;47.184;8.538;2022-10-22T09:08:52;18.00;99.90
7516;DHT22;3799;47.184;8.538;2022-10-22T09:11:21;17.80;99.90
7516;DHT22;3799;47.184;8.538;2022-10-22T09:13:48;17.70;99.90
7516;DHT22;3799;47.184;8.538;2022-10-22T09:26:57;17.70;99.90
7516;DHT22;3799;47.184;8.538;2022-10-22T09:29:23;17.80;99.90
7516;DHT22;3799;47.184;8.538;2022-10-22T09:31:54;17.80;99.90
7516;DHT22;3799;47.184;8.538;2022-10-22T09:34:20;17.90;99.90
7516;DHT22;3799;47.184;8.538;2022-10-22T09:36:46;18.20;99.90
7516;DHT22;3799;47.184;8.538;2022-10-22T09:39:22;18.10;99.90
7516;DHT22;3799;47.184;8.538;2022-10-22T09:41:49;18.10;99.90
7516;DHT22;3799;47.184;8.538;2022-10-22T09:44:16;18.20;99.90
7516;DHT22;3799;47.184;8.538;2022-10-22T09:46:41;18.30;99.90
7516;DHT22;3799;47.184;8.538;2022-10-22T09:49:20;18.60;99.90
7516;DHT22;3799;47.184;8.538;2022-10-22T09:54:20;18.40;99.90
7516;DHT22;3799;47.184;8.538;2022-10-22T09:56:55;18.80;99.90
7516;DHT22;3799;47.184;8.538;2022-10-22T09:59:25;18.70;99.90
7516;DHT22;3799;47.184;8.538;2022-10-22T10:02:02;18.80;99.90
7516;DHT22;3799;47.184;8.538;2022-10-22T10:04:34;18.70;99.90
7516;DHT22;3799;47.184;8.538;2022-10-22T10:07:11;18.70;99.90
7516;DHT22;3799;47.184;8.538;2022-10-22T10:09:39;18.90;99.90
7516;DHT22;3799;47.184;8.538;2022-10-22T10:12:14;19.10;99.90
7516;DHT22;3799;47.184;8.538;2022-10-22T10:14:44;19.10;99.90
7516;DHT22;3799;47.184;8.538;2022-10-22T10:19:45;19.30;99.90
7516;DHT22;3799;47.184;8.538;2022-10-22T10:24:50;18.90;99.90
7516;DHT22;3799;47.184;8.538;2022-10-22T10:29:53;19.10;99.90
7516;DHT22;3799;47.184;8.538;2022-10-22T10:32:47;19.50;99.90
7516;DHT22;3799;47.184;8.538;2022-10-22T10:38:03;19.70;99.90
7516;DHT22;3799;47.184;8.538;2022-10-22T10:40:47;19.90;99.90
7516;DHT22;3799;47.184;8.538;2022-10-22T10:46:27;20.10;99.90
7516;DHT22;3799;47.184;8.538;2022-10-22T10:51:06;19.80;99.90
7516;DHT22;3799;47.184;8.538;2022-10-22T11:01:55;20.40;99.90
7516;DHT22;3799;47.184;8.538;2022-10-22T11:06:52;20.40;99.90
7516;DHT22;3799;47.184;8.538;2022-10-22T11:09:26;20.70;99.90
7516;DHT22;3799;47.184;8.538;2022-10-22T11:11:56;20.60;99.90
7516;DHT22;3799;47.184;8.538;2022-10-22T11:14:28;20.90;99.90
7516;DHT22;3799;47.184;8.538;2022-10-22T11:16:56;21.00;99.90
7516;DHT22;3799;47.184;8.538;2022-10-22T11:19:29;21.10;99.90
7516;DHT22;3799;47.184;8.538;2022-10-22T11:29:41;21.40;98.10
7516;DHT22;3799;47.184;8.538;2022-10-22T11:32:11;21.50;97.90
7516;DHT22;3799;47.184;8.538;2022-10-22T11:34:46;21.50;96.80
7516;DHT22;3799;47.184;8.538;2022-10-22T11:37:12;21.80;96.70
7516;DHT22;3799;47.184;8.538;2022-10-22T11:39:43;21.90;96.30
7516;DHT22;3799;47.184;8.538;2022-10-22T11:42:11;22.10;95.20
7516;DHT22;3799;47.184;8.538;2022-10-22T11:47:25;22.30;93.10
7516;DHT22;3799;47.184;8.538;2022-10-22T11:49:55;22.40;90.70
7516;DHT22;3799;47.184;8.538;2022-10-22T11:54:57;22.70;84.90
7516;DHT22;3799;47.184;8.538;2022-10-22T11:57:34;22.80;83.40
7516;DHT22;3799;47.184;8.538;2022-10-22T12:00:00;22.70;81.10
7516;DHT22;3799;47.184;8.538;2022-10-22T12:02:38;22.50;79.80
7516;DHT22;3799;47.184;8.538;2022-10-22T12:05:18;22.40;81.50
7516;DHT22;3799;47.184;8.538;2022-10-22T12:10:26;22.40;81.00
7516;DHT22;3799;47.184;8.538;2022-10-22T12:12:59;22.60;80.60
7516;DHT22;3799;47.184;8.538;2022-10-22T12:15:26;22.80;78.70
7516;DHT22;3799;47.184;8.538;2022-10-22T12:17:57;22.90;74.70
7516;DHT22;3799;47.184;8.538;2022-10-22T12:20:26;22.90;74.90
7516;DHT22;3799;47.184;8.538;2022-10-22T12:22:52;23.00;73.30
7516;DHT22;3799;47.184;8.538;2022-10-22T12:25:23;23.10;71.20
7516;DHT22;3799;47.184;8.538;2022-10-22T12:27:50;23.20;70.00
7516;DHT22;3799;47.184;8.538;2022-10-22T12:30:20;23.30;70.40
7516;DHT22;3799;47.184;8.538;2022-10-22T12:32:50;23.50;69.50
7516;DHT22;3799;47.184;8.538;2022-10-22T12:35:18;23.70;69.50
7516;DHT22;3799;47.184;8.538;2022-10-22T12:37:54;23.90;66.60
7516;DHT22;3799;47.184;8.538;2022-10-22T12:40:25;23.90;66.90
7516;DHT22;3799;47.184;8.538;2022-10-22T12:42:55;24.00;65.80
7516;DHT22;3799;47.184;8.538;2022-10-22T12:45:26;24.20;65.50
7516;DHT22;3799;47.184;8.538;2022-10-22T12:47:59;24.40;65.00
7516;DHT22;3799;47.184;8.538;2022-10-22T12:50:35;24.50;64.50
7516;DHT22;3799;47.184;8.538;2022-10-22T12:53:05;24.80;62.30
7516;DHT22;3799;47.184;8.538;2022-10-22T12:55:31;25.00;60.70
7516;DHT22;3799;47.184;8.538;2022-10-22T12:57:58;25.20;60.00
7516;DHT22;3799;47.184;8.538;2022-10-22T13:00:28;25.30;58.40
7516;DHT22;3799;47.184;8.538;2022-10-22T13:02:58;25.40;57.40
7516;DHT22;3799;47.184;8.538;2022-10-22T13:05:25;25.50;57.00
7516;DHT22;3799;47.184;8.538;2022-10-22T13:08:02;25.70;56.80
7516;DHT22;3799;47.184;8.538;2022-10-22T13:10:33;25.70;55.50
7516;DHT22;3799;47.184;8.538;2022-10-22T13:12:59;25.60;56.10
7516;DHT22;3799;47.184;8.538;2022-10-22T13:20:54;25.50;55.70
7516;DHT22;3799;47.184;8.538;2022-10-22T13:23:22;25.40;55.30
7516;DHT22;3799;47.184;8.538;2022-10-22T13:25:58;25.30;55.40
7516;DHT22;3799;47.184;8.538;2022-10-22T13:28:24;25.50;55.30
7516;DHT22;3799;47.184;8.538;2022-10-22T13:31:01;25.80;55.20
7516;DHT22;3799;47.184;8.538;2022-10-22T13:34:31;26.00;54.60
7516;DHT22;3799;47.184;8.538;2022-10-22T13:36:22;26.20;54.40
7516;DHT22;3799;47.184;8.538;2022-10-22T13:38:47;26.50;53.70
7516;DHT22;3799;47.184;8.538;2022-10-22T13:41:20;26.60;53.10
7516;DHT22;3799;47.184;8.538;2022-10-22T13:43:46;26.70;51.90
7516;DHT22;3799;47.184;8.538;2022-10-22T13:46:12;26.90;52.10
7516;DHT22;3799;47.184;8.538;2022-10-22T13:48:40;27.00;52.10
7516;DHT22;3799;47.184;8.538;2022-10-22T13:51:10;27.10;51.70
7516;DHT22;3799;47.184;8.538;2022-10-22T13:53:37;27.30;51.50
7516;DHT22;3799;47.184;8.538;2022-10-22T13:56:03;27.40;51.30
7516;DHT22;3799;47.184;8.538;2022-10-22T13:58:29;27.30;52.00
7516;DHT22;3799;47.184;8.538;2022-10-22T14:00:56;27.10;52.90
7516;DHT22;3799;47.184;8.538;2022-10-22T14:03:27;27.00;52.60
7516;DHT22;3799;47.184;8.538;2022-10-22T14:05:54;27.30;51.80
7516;DHT22;3799;47.184;8.538;2022-10-22T14:08:19;27.80;51.60
7516;DHT22;3799;47.184;8.538;2022-10-22T14:10:48;28.80;50.80
7516;DHT22;3799;47.184;8.538;2022-10-22T14:13:15;29.70;49.50
7516;DHT22;3799;47.184;8.538;2022-10-22T14:15:41;30.60;48.70
7516;DHT22;3799;47.184;8.538;2022-10-22T14:18:07;31.00;48.20
7516;DHT22;3799;47.184;8.538;2022-10-22T14:20:36;31.00;48.20
7516;DHT22;3799;47.184;8.538;2022-10-22T14:23:15;31.20;47.10
7516;DHT22;3799;47.184;8.538;2022-10-22T14:25:43;31.10;47.60
7516;DHT22;3799;47.184;8.538;2022-10-22T14:28:09;31.50;47.20
7516;DHT22;3799;47.184;8.538;2022-10-22T14:30:41;32.10;46.30
7516;DHT22;3799;47.184;8.538;2022-10-22T14:33:17;32.30;44.50
7516;DHT22;3799;47.184;8.538;2022-10-22T14:35:43;32.50;43.10
7516;DHT22;3799;47.184;8.538;2022-10-22T14:38:08;32.70;42.80
7516;DHT22;3799;47.184;8.538;2022-10-22T14:40:34;33.00;42.70
7516;DHT22;3799;47.184;8.538;2022-10-22T14:43:03;33.20;42.10
7516;DHT22;3799;47.184;8.538;2022-10-22T14:45:29;33.60;41.60
7516;DHT22;3799;47.184;8.538;2022-10-22T14:47:55;34.10;41.10
7516;DHT22;3799;47.184;8.538;2022-10-22T14:50:22;34.90;40.50
7516;DHT22;3799;47.184;8.538;2022-10-22T14:52:47;35.60;39.60
7516;DHT22;3799;47.184;8.538;2022-10-22T14:55:13;36.30;38.90
7516;DHT22;3799;47.184;8.538;2022-10-22T14:57:40;36.60;38.50
7516;DHT22;3799;47.184;8.538;2022-10-22T15:00:07;37.00;38.00
7516;DHT22;3799;47.184;8.538;2022-10-22T15:02:33;37.10;36.80
7516;DHT22;3799;47.184;8.538;2022-10-22T15:04:58;36.80;37.10
7516;DHT22;3799;47.184;8.538;2022-10-22T15:07:24;36.60;37.20
7516;DHT22;3799;47.184;8.538;2022-10-22T15:09:52;35.80;36.90
7516;DHT22;3799;47.184;8.538;2022-10-22T15:12:20;34.70;38.40
7516;DHT22;3799;47.184;8.538;2022-10-22T15:14:46;34.20;39.00
7516;DHT22;3799;47.184;8.538;2022-10-22T15:17:12;34.10;38.80
7516;DHT22;3799;47.184;8.538;2022-10-22T15:19:38;33.00;40.10
7516;DHT22;3799;47.184;8.538;2022-10-22T15:22:04;32.40;41.10
7516;DHT22;3799;47.184;8.538;2022-10-22T15:24:37;31.80;42.20
7516;DHT22;3799;47.184;8.538;2022-10-22T15:27:03;31.20;42.70
7516;DHT22;3799;47.184;8.538;2022-10-22T15:29:31;30.90;42.90
7516;DHT22;3799;47.184;8.538;2022-10-22T15:31:57;30.50;42.30
7516;DHT22;3799;47.184;8.538;2022-10-22T15:34:25;29.90;42.90
7516;DHT22;3799;47.184;8.538;2022-10-22T15:37:03;29.50;43.40
7516;DHT22;3799;47.184;8.538;2022-10-22T15:39:29;28.80;43.80
7516;DHT22;3799;47.184;8.538;2022-10-22T15:41:55;28.20;44.90
7516;DHT22;3799;47.184;8.538;2022-10-22T15:44:22;27.60;45.10
7516;DHT22;3799;47.184;8.538;2022-10-22T15:46:50;27.00;46.20
7516;DHT22;3799;47.184;8.538;2022-10-22T15:49:17;26.50;47.00
7516;DHT22;3799;47.184;8.538;2022-10-22T15:51:43;25.80;47.80
7516;DHT22;3799;47.184;8.538;2022-10-22T15:54:12;25.10;49.40
7516;DHT22;3799;47.184;8.538;2022-10-22T15:56:38;24.70;49.90
7516;DHT22;3799;47.184;8.538;2022-10-22T15:59:04;24.20;50.90
7516;DHT22;3799;47.184;8.538;2022-10-22T16:01:31;23.80;51.70
7516;DHT22;3799;47.184;8.538;2022-10-22T16:03:57;23.50;52.60
7516;DHT22;3799;47.184;8.538;2022-10-22T16:06:40;23.30;52.70
7516;DHT22;3799;47.184;8.538;2022-10-22T16:09:11;23.00;53.30
7516;DHT22;3799;47.184;8.538;2022-10-22T16:11:37;22.90;53.60
7516;DHT22;3799;47.184;8.538;2022-10-22T16:14:03;22.90;53.90
7516;DHT22;3799;47.184;8.538;2022-10-22T16:16:30;22.90;53.90
7516;DHT22;3799;47.184;8.538;2022-10-22T16:19:06;22.60;54.00
7516;DHT22;3799;47.184;8.538;2022-10-22T16:21:31;22.10;54.80
7516;DHT22;3799;47.184;8.538;2022-10-22T16:23:58;21.60;55.30
7516;DHT22;3799;47.184;8.538;2022-10-22T16:26:24;21.10;56.30
7516;DHT22;3799;47.184;8.538;2022-10-22T16:28:53;20.70;57.30
7516;DHT22;3799;47.184;8.538;2022-10-22T16:31:19;20.30;58.20
7516;DHT22;3799;47.184;8.538;2022-10-22T16:33:44;19.90;59.30
7516;DHT22;3799;47.184;8.538;2022-10-22T16:36:11;19.50;61.20
7516;DHT22;3799;47.184;8.538;2022-10-22T16:38:37;19.20;63.90
7516;DHT22;3799;47.184;8.538;2022-10-22T16:41:13;18.80;68.30
7516;DHT22;3799;47.184;8.538;2022-10-22T16:43:40;18.50;73.90
7516;DHT22;3799;47.184;8.538;2022-10-22T16:46:10;18.20;82.90
7516;DHT22;3799;47.184;8.538;2022-10-22T16:48:35;18.20;90.30
7516;DHT22;3799;47.184;8.538;2022-10-22T16:51:05;17.90;92.80
7516;DHT22;3799;47.184;8.538;2022-10-22T16:53:31;17.60;95.20
7516;DHT22;3799;47.184;8.538;2022-10-22T16:55:57;17.70;97.20
7516;DHT22;3799;47.184;8.538;2022-10-22T16:58:23;17.40;98.50
7516;DHT22;3799;47.184;8.538;2022-10-22T17:00:52;17.20;99.60
7516;DHT22;3799;47.184;8.538;2022-10-22T17:03:18;17.10;99.90
7516;DHT22;3799;47.184;8.538;2022-10-22T17:05:43;17.10;99.90
7516;DHT22;3799;47.184;8.538;2022-10-22T17:08:09;16.60;99.90
7516;DHT22;3799;47.184;8.538;2022-10-22T17:10:35;16.70;99.90
7516;DHT22;3799;47.184;8.538;2022-10-22T17:13:02;16.50;99.90
7516;DHT22;3799;47.184;8.538;2022-10-22T17:15:27;16.40;99.90
7516;DHT22;3799;47.184;8.538;2022-10-22T17:17:53;16.20;99.90
7516;DHT22;3799;47.184;8.538;2022-10-22T17:20:19;16.20;99.90
7516;DHT22;3799;47.184;8.538;2022-10-22T17:22:45;16.30;99.90
7516;DHT22;3799;47.184;8.538;2022-10-22T17:25:55;16.30;99.90
7516;DHT22;3799;47.184;8.538;2022-10-22T17:27:59;16.40;99.90
7516;DHT22;3799;47.184;8.538;2022-10-22T17:30:25;16.00;99.90
7516;DHT22;3799;47.184;8.538;2022-10-22T17:32:51;15.80;99.90
7516;DHT22;3799;47.184;8.538;2022-10-22T17:35:17;16.10;99.90
7516;DHT22;3799;47.184;8.538;2022-10-22T17:37:44;16.10;99.90
7516;DHT22;3799;47.184;8.538;2022-10-22T17:40:10;15.90;99.90
7516;DHT22;3799;47.184;8.538;2022-10-22T17:42:36;15.70;99.90
7516;DHT22;3799;47.184;8.538;2022-10-22T17:45:01;15.60;99.90
7516;DHT22;3799;47.184;8.538;2022-10-22T17:47:27;15.60;99.90
7516;DHT22;3799;47.184;8.538;2022-10-22T17:49:53;15.60;99.90
7516;DHT22;3799;47.184;8.538;2022-10-22T17:52:18;15.60;99.90